Time;durP1;ratioP1;P1;durP2;ratioP2;P2;SDS_P1;SDS_P2;PMS_P1;PMS_P2;Temp;Humidity;BMP_temperature;BMP_pressure;BME280_temperature;BME280_humidity;BME280_pressure;Samples;Min_cycle;Max_cycle;Signal;HPM_P1;HPM_P2
2021/07/10 00:01:18;;;;;;;28.95;24.35;;;16.60;86.40;;;;;;5033200;28;20065;-78
2021/07/10 00:03:44;;;;;;;30.65;25.67;;;16.60;86.30;;;;;;5030256;28;20591;-74
2021/07/10 00:06:10;;;;;;;28.98;25.85;;;16.60;86.50;;;;;;5029091;28;20101;-75
2021/07/10 00:08:36;;;;;;;29.30;25.08;;;16.60;86.50;;;;;;5046219;28;20065;-78
2021/07/10 00:11:04;;;;;;;30.25;26.58;;;16.60;86.50;;;;;;5044565;28;20021;-75
2021/07/10 00:13:30;;;;;;;27.38;24.45;;;16.50;86.50;;;;;;5037581;28;20497;-74
2021/07/10 00:15:56;;;;;;;34.35;25.80;;;16.50;86.50;;;;;;5035521;28;20052;-74
2021/07/10 00:18:21;;;;;;;30.58;24.48;;;16.50;86.50;;;;;;5036838;28;20030;-76
2021/07/10 00:20:49;;;;;;;29.38;24.60;;;16.40;86.70;;;;;;5029474;28;20045;-75
2021/07/10 00:23:15;;;;;;;29.60;25.33;;;16.30;86.80;;;;;;5034628;28;20549;-74
2021/07/10 00:25:41;;;;;;;30.58;23.85;;;16.30;87.10;;;;;;5029032;28;20346;-74
2021/07/10 00:28:07;;;;;;;29.77;23.90;;;16.30;87.20;;;;;;5043071;28;20034;-76
2021/07/10 00:30:34;;;;;;;24.25;20.80;;;16.30;87.10;;;;;;5036726;28;20033;-75
2021/07/10 00:32:59;;;;;;;23.25;20.13;;;16.30;87.20;;;;;;5029571;28;20058;-74
2021/07/10 00:35:25;;;;;;;22.48;19.00;;;16.20;87.10;;;;;;5028397;28;20073;-75
2021/07/10 00:37:51;;;;;;;20.63;17.40;;;16.20;87.00;;;;;;5030367;28;20034;-77
2021/07/10 00:40:16;;;;;;;22.23;18.38;;;16.20;87.00;;;;;;5031123;28;20045;-74
2021/07/10 00:42:45;;;;;;;20.73;17.63;;;16.10;87.00;;;;;;5028271;28;20065;-73
2021/07/10 00:45:12;;;;;;;25.25;18.90;;;16.10;87.00;;;;;;5028495;28;20073;-74
2021/07/10 00:47:38;;;;;;;23.98;18.13;;;16.10;87.00;;;;;;5039167;28;20104;-74
2021/07/10 00:50:08;;;;;;;21.80;18.70;;;16.10;86.90;;;;;;5036193;28;20026;-74
2021/07/10 00:52:34;;;;;;;22.88;17.30;;;16.10;86.70;;;;;;5027873;28;20030;-76
2021/07/10 00:55:00;;;;;;;20.48;17.42;;;16.10;86.90;;;;;;5039681;28;20104;-76
2021/07/10 00:57:26;;;;;;;21.30;17.85;;;16.10;86.80;;;;;;5041274;28;20018;-73
2021/07/10 00:59:52;;;;;;;22.95;18.33;;;16.10;86.80;;;;;;5027804;28;20048;-74
2021/07/10 01:02:17;;;;;;;23.58;18.30;;;16.10;86.90;;;;;;5032559;28;20037;-74
2021/07/10 01:04:43;;;;;;;22.08;18.95;;;16.10;86.90;;;;;;5040978;28;20041;-75
2021/07/10 01:07:09;;;;;;;23.13;17.95;;;16.10;87.00;;;;;;5042357;28;20089;-77
2021/07/10 01:09:35;;;;;;;21.92;17.63;;;16.10;87.20;;;;;;5034600;28;20030;-75
2021/07/10 01:12:00;;;;;;;18.88;16.77;;;16.10;87.30;;;;;;5029665;28;20249;-74
2021/07/10 01:14:26;;;;;;;20.65;17.45;;;16.10;87.10;;;;;;5032959;28;20052;-75
2021/07/10 01:16:52;;;;;;;20.85;17.98;;;16.10;86.90;;;;;;5035918;28;20094;-75
2021/07/10 01:19:28;;;;;;;21.05;17.65;;;16.10;87.00;;;;;;5036468;28;20042;-75
2021/07/10 01:21:57;;;;;;;19.95;16.83;;;16.10;87.10;;;;;;5035878;28;20048;-75
2021/07/10 01:24:23;;;;;;;19.58;17.42;;;16.10;87.20;;;;;;5035420;28;20033;-73
2021/07/10 01:26:49;;;;;;;20.92;16.52;;;16.10;87.30;;;;;;5034196;28;20034;-73
2021/07/10 01:29:15;;;;;;;22.23;19.02;;;16.10;87.20;;;;;;5034391;28;20045;-76
2021/07/10 01:31:43;;;;;;;21.90;17.55;;;16.10;87.10;;;;;;5043007;28;20026;-74
2021/07/10 01:34:08;;;;;;;23.13;18.65;;;16.00;86.90;;;;;;5044763;28;20283;-74
2021/07/10 01:36:36;;;;;;;21.10;18.02;;;16.00;87.00;;;;;;5038052;28;20379;-77
2021/07/10 01:39:05;;;;;;;20.45;16.95;;;15.90;86.90;;;;;;5034464;28;20026;-74
2021/07/10 01:41:40;;;;;;;17.90;15.38;;;15.90;86.90;;;;;;5029076;28;20037;-74
2021/07/10 01:44:06;;;;;;;19.95;15.45;;;15.80;86.90;;;;;;5036528;28;20061;-77
2021/07/10 01:46:31;;;;;;;16.50;13.50;;;15.80;86.90;;;;;;5032266;28;20033;-75
2021/07/10 01:48:57;;;;;;;16.17;14.35;;;15.80;87.00;;;;;;5035764;28;20087;-74
2021/07/10 01:51:23;;;;;;;15.30;12.90;;;15.70;87.20;;;;;;5041663;28;20029;-76
2021/07/10 01:53:48;;;;;;;15.85;12.98;;;15.60;87.40;;;;;;5056262;28;20041;-74
2021/07/10 01:56:14;;;;;;;15.35;12.57;;;15.60;87.50;;;;;;5035865;28;20110;-75
2021/07/10 01:58:40;;;;;;;14.60;12.85;;;15.60;87.40;;;;;;5028233;28;20397;-74
2021/07/10 02:01:06;;;;;;;17.75;14.27;;;15.60;87.20;;;;;;5033293;28;20045;-75
2021/07/10 02:03:31;;;;;;;18.20;14.40;;;15.60;87.20;;;;;;5028582;28;20045;-75
2021/07/10 02:05:57;;;;;;;17.42;14.60;;;15.60;87.20;;;;;;5035240;28;20038;-74
2021/07/10 02:08:23;;;;;;;18.85;15.77;;;15.60;87.50;;;;;;5039545;28;20058;-75
2021/07/10 02:10:48;;;;;;;19.92;17.00;;;15.60;87.50;;;;;;5029381;28;20101;-74
2021/07/10 02:13:14;;;;;;;19.73;15.88;;;15.60;87.50;;;;;;5025862;28;20046;-73
2021/07/10 02:15:40;;;;;;;19.35;16.80;;;15.70;87.60;;;;;;5032949;28;20093;-75
2021/07/10 02:18:06;;;;;;;20.20;16.42;;;15.70;87.90;;;;;;5038770;28;20029;-76
2021/07/10 02:20:33;;;;;;;24.23;18.45;;;15.70;87.90;;;;;;5040465;28;20076;-74
2021/07/10 02:22:59;;;;;;;26.23;19.42;;;15.80;87.90;;;;;;5049951;28;20048;-74
2021/07/10 02:25:28;;;;;;;37.67;24.35;;;15.90;87.90;;;;;;5032426;28;20493;-75
2021/07/10 02:27:54;;;;;;;36.40;26.42;;;15.90;88.10;;;;;;5030365;28;20057;-77
2021/07/10 02:30:26;;;;;;;35.95;26.83;;;16.00;88.30;;;;;;5039589;28;20076;-75
2021/07/10 02:32:54;;;;;;;38.35;29.88;;;16.00;88.50;;;;;;5031706;28;20046;-75
2021/07/10 02:35:20;;;;;;;38.25;28.85;;;16.10;88.60;;;;;;5031231;28;20085;-75
2021/07/10 02:37:47;;;;;;;41.83;31.33;;;16.10;88.80;;;;;;5040880;28;20038;-74
2021/07/10 02:40:13;;;;;;;43.83;31.38;;;16.10;88.90;;;;;;5036748;28;20042;-75
2021/07/10 02:42:40;;;;;;;46.25;33.88;;;16.10;89.00;;;;;;5032803;28;20061;-76
2021/07/10 02:45:08;;;;;;;47.70;35.22;;;16.20;89.10;;;;;;5031774;28;20029;-74
2021/07/10 02:47:34;;;;;;;49.80;35.45;;;16.20;89.20;;;;;;5041444;28;20041;-75
2021/07/10 02:50:00;;;;;;;54.05;36.97;;;16.20;89.30;;;;;;5043111;28;20114;-75
2021/07/10 02:52:26;;;;;;;53.17;38.22;;;16.20;89.40;;;;;;5032764;28;20069;-75
2021/07/10 02:54:52;;;;;;;59.25;39.85;;;16.30;89.50;;;;;;5047062;28;20060;-77
2021/07/10 02:57:18;;;;;;;59.55;39.50;;;16.30;89.60;;;;;;5045524;28;20042;-75
2021/07/10 02:59:44;;;;;;;66.35;40.33;;;16.30;89.70;;;;;;5039455;28;20030;-76
2021/07/10 03:02:11;;;;;;;73.15;44.20;;;16.30;89.90;;;;;;5036071;28;20056;-74
2021/07/10 03:04:37;;;;;;;61.35;41.10;;;16.30;90.00;;;;;;5029898;28;20042;-75
2021/07/10 03:07:03;;;;;;;79.30;46.63;;;16.40;90.00;;;;;;5030048;28;20045;-76
2021/07/10 03:09:31;;;;;;;101.78;45.65;;;16.40;90.10;;;;;;5031142;28;20063;-75
2021/07/10 03:11:56;;;;;;;62.65;42.95;;;16.40;90.10;;;;;;5030457;28;20041;-74
2021/07/10 03:14:25;;;;;;;131.40;48.50;;;16.40;90.20;;;;;;5047128;28;20041;-75
2021/07/10 03:16:50;;;;;;;73.30;45.92;;;16.40;90.10;;;;;;5048085;28;20029;-74
2021/07/10 03:19:16;;;;;;;103.20;49.55;;;16.40;90.30;;;;;;5038999;28;20048;-76
2021/07/10 03:21:45;;;;;;;75.80;46.95;;;16.40;90.40;;;;;;5037248;28;20128;-77
2021/07/10 03:24:11;;;;;;;186.90;51.08;;;16.30;90.50;;;;;;5034970;28;20076;-75
2021/07/10 03:26:36;;;;;;;65.55;44.30;;;16.40;90.50;;;;;;5038585;28;20505;-76
2021/07/10 03:29:02;;;;;;;96.95;49.75;;;16.30;90.60;;;;;;5028881;28;20049;-75
2021/07/10 03:31:27;;;;;;;84.25;49.22;;;16.40;90.60;;;;;;5031009;28;20038;-75
2021/07/10 03:33:53;;;;;;;64.03;42.50;;;16.40;90.70;;;;;;5030138;28;20109;-74
2021/07/10 03:36:19;;;;;;;70.38;44.85;;;16.40;90.70;;;;;;5036391;28;20097;-74
2021/07/10 03:38:45;;;;;;;112.10;50.13;;;16.40;90.80;;;;;;5038598;28;20037;-77
2021/07/10 03:41:11;;;;;;;73.75;46.50;;;16.40;90.70;;;;;;5028880;28;20049;-74
2021/07/10 03:43:37;;;;;;;79.55;49.03;;;16.40;90.80;;;;;;5028942;28;20034;-74
2021/07/10 03:46:03;;;;;;;75.82;48.33;;;16.50;90.80;;;;;;5036524;28;20034;-75
2021/07/10 03:48:30;;;;;;;80.55;48.65;;;16.40;90.80;;;;;;5049241;28;20036;-74
2021/07/10 03:50:57;;;;;;;62.72;43.00;;;16.50;90.80;;;;;;5035440;28;20061;-74
2021/07/10 03:53:23;;;;;;;65.32;42.65;;;16.50;90.80;;;;;;5038093;28;20060;-75
2021/07/10 03:55:49;;;;;;;63.65;44.17;;;16.50;90.80;;;;;;5036720;28;20389;-74
2021/07/10 03:58:15;;;;;;;63.53;43.40;;;16.50;90.80;;;;;;5029332;28;20045;-75
2021/07/10 04:00:41;;;;;;;61.58;42.05;;;16.50;90.60;;;;;;5032314;28;20033;-77
2021/07/10 04:03:07;;;;;;;61.67;42.47;;;16.50;90.60;;;;;;5028319;28;20057;-75
2021/07/10 04:05:36;;;;;;;67.40;45.33;;;16.50;90.60;;;;;;5028716;28;20041;-74
2021/07/10 04:08:02;;;;;;;69.63;46.30;;;16.50;90.40;;;;;;5028385;28;20038;-75
2021/07/10 04:10:31;;;;;;;63.92;42.90;;;16.50;90.40;;;;;;5029874;28;20034;-76
2021/07/10 04:12:56;;;;;;;65.80;44.75;;;16.50;90.50;;;;;;5032719;28;20136;-76
2021/07/10 04:15:22;;;;;;;68.85;45.58;;;16.50;90.50;;;;;;5036589;28;21819;-73
2021/07/10 04:17:48;;;;;;;64.28;42.40;;;16.50;90.50;;;;;;5031731;28;20038;-75
2021/07/10 04:20:16;;;;;;;70.68;42.13;;;16.50;90.40;;;;;;5037734;28;20054;-74
2021/07/10 04:22:42;;;;;;;72.55;45.55;;;16.60;90.30;;;;;;5029416;28;20060;-75
2021/07/10 04:25:14;;;;;;;66.50;42.95;;;16.50;90.10;;;;;;5041579;28;20037;-74
2021/07/10 04:27:41;;;;;;;65.78;41.30;;;16.50;90.20;;;;;;5030520;28;20041;-75
2021/07/10 04:30:08;;;;;;;67.05;41.17;;;16.60;90.10;;;;;;5032672;28;20082;-75
2021/07/10 04:32:34;;;;;;;63.15;41.95;;;16.60;90.10;;;;;;5035979;28;20034;-76
2021/07/10 04:34:59;;;;;;;62.05;40.83;;;16.60;89.90;;;;;;5040407;28;20050;-77
2021/07/10 04:37:25;;;;;;;59.78;39.55;;;16.60;90.00;;;;;;5054723;28;20021;-78
2021/07/10 04:39:51;;;;;;;65.63;40.38;;;16.60;89.80;;;;;;5036631;28;20038;-78
2021/07/10 04:42:17;;;;;;;70.72;44.78;;;16.60;89.80;;;;;;5039051;28;20459;-75
2021/07/10 04:44:43;;;;;;;61.38;38.28;;;16.70;89.60;;;;;;5028166;28;20029;-75
2021/07/10 04:47:09;;;;;;;66.72;42.15;;;16.70;89.70;;;;;;5034482;28;20049;-76
2021/07/10 04:49:35;;;;;;;57.70;39.55;;;16.70;89.50;;;;;;5045399;28;20040;-77
2021/07/10 04:52:01;;;;;;;57.05;40.97;;;16.80;89.50;;;;;;5037059;28;20096;-75
2021/07/10 04:54:27;;;;;;;59.65;42.05;;;16.80;89.00;;;;;;5029859;28;20042;-75
2021/07/10 04:56:53;;;;;;;63.20;43.53;;;16.70;88.70;;;;;;5029172;28;20030;-75
2021/07/10 04:59:19;;;;;;;62.22;40.22;;;16.60;88.90;;;;;;5028501;28;20089;-76
2021/07/10 05:01:45;;;;;;;63.33;42.28;;;16.60;89.30;;;;;;5042243;28;20060;-75
2021/07/10 05:04:11;;;;;;;61.88;41.60;;;16.60;89.20;;;;;;5028915;28;20098;-75
2021/07/10 05:06:36;;;;;;;61.15;40.47;;;16.60;89.40;;;;;;5028986;28;20401;-75
2021/07/10 05:09:03;;;;;;;58.45;40.67;;;16.60;89.30;;;;;;5028283;28;20111;-75
2021/07/10 05:11:28;;;;;;;60.13;40.40;;;16.70;89.40;;;;;;5029538;28;20030;-74
2021/07/10 05:13:54;;;;;;;60.67;40.55;;;16.70;89.60;;;;;;5028346;28;20061;-74
2021/07/10 05:16:19;;;;;;;62.78;43.65;;;16.80;89.50;;;;;;5035922;28;20034;-75
2021/07/10 05:18:45;;;;;;;59.08;40.90;;;16.80;89.30;;;;;;5036606;28;20117;-75
2021/07/10 05:21:11;;;;;;;63.35;41.22;;;16.80;89.20;;;;;;5027116;28;20046;-74
2021/07/10 05:23:36;;;;;;;61.50;42.30;;;16.90;89.20;;;;;;5033576;28;20106;-75
2021/07/10 05:26:02;;;;;;;55.03;40.15;;;16.80;88.90;;;;;;5035945;28;20041;-74
2021/07/10 05:28:28;;;;;;;53.03;38.17;;;16.90;89.00;;;;;;5036845;28;20038;-75
2021/07/10 05:30:53;;;;;;;54.60;39.20;;;17.10;89.00;;;;;;5027347;28;20034;-77
2021/07/10 05:33:19;;;;;;;45.15;34.67;;;17.20;88.70;;;;;;5037468;28;20068;-75
2021/07/10 05:35:46;;;;;;;45.85;34.95;;;17.20;88.00;;;;;;5034880;28;20030;-75
2021/07/10 05:38:13;;;;;;;45.15;35.08;;;17.20;87.20;;;;;;5027015;28;20045;-75
2021/07/10 05:40:39;;;;;;;44.78;33.42;;;17.30;87.00;;;;;;5027605;28;20093;-71
2021/07/10 05:43:04;;;;;;;42.00;33.25;;;17.30;86.70;;;;;;5027947;28;20037;-73
2021/07/10 05:45:30;;;;;;;41.20;31.98;;;17.30;86.20;;;;;;5042843;28;20045;-73
2021/07/10 05:47:56;;;;;;;43.72;33.03;;;17.40;85.70;;;;;;5027279;28;20034;-72
2021/07/10 05:50:21;;;;;;;44.05;35.17;;;17.40;85.90;;;;;;5030103;28;20714;-72
2021/07/10 05:52:47;;;;;;;45.25;35.20;;;17.60;85.70;;;;;;5032475;28;20072;-73
2021/07/10 05:55:13;;;;;;;42.70;32.92;;;17.60;85.70;;;;;;5035312;28;20060;-73
2021/07/10 05:57:39;;;;;;;40.40;30.83;;;17.70;85.50;;;;;;5027336;28;20138;-73
2021/07/10 06:00:11;;;;;;;41.92;31.15;;;17.70;85.60;;;;;;5031292;28;20034;-76
2021/07/10 06:02:38;;;;;;;41.70;32.80;;;17.90;85.50;;;;;;5032149;28;20114;-74
2021/07/10 06:05:05;;;;;;;42.40;33.13;;;18.00;85.40;;;;;;5031164;28;20038;-72
2021/07/10 06:07:31;;;;;;;41.00;31.48;;;18.00;85.40;;;;;;5031294;28;20038;-73
2021/07/10 06:09:57;;;;;;;41.08;32.30;;;18.00;85.00;;;;;;5033801;28;20026;-72
2021/07/10 06:12:22;;;;;;;39.85;31.60;;;18.00;84.80;;;;;;5031608;28;20044;-71
2021/07/10 06:14:48;;;;;;;47.20;33.25;;;18.10;84.80;;;;;;5032774;28;20041;-73
2021/07/10 06:17:14;;;;;;;39.72;31.52;;;18.10;84.70;;;;;;5034663;28;20049;-75
2021/07/10 06:19:39;;;;;;;41.00;32.67;;;18.00;84.20;;;;;;5048346;28;20098;-72
2021/07/10 06:22:05;;;;;;;40.08;31.65;;;18.00;84.70;;;;;;5029940;28;20061;-71
2021/07/10 06:24:31;;;;;;;40.05;31.25;;;18.00;84.40;;;;;;5044644;28;20075;-72
2021/07/10 06:26:57;;;;;;;38.63;30.42;;;18.00;84.50;;;;;;5039051;28;20102;-73
2021/07/10 06:29:24;;;;;;;40.35;31.73;;;18.00;84.60;;;;;;5030794;28;20432;-72
2021/07/10 06:31:49;;;;;;;38.85;31.15;;;17.80;84.20;;;;;;5031652;28;20030;-74
2021/07/10 06:34:15;;;;;;;43.53;32.83;;;17.70;84.90;;;;;;5029756;28;20060;-72
2021/07/10 06:36:41;;;;;;;42.63;32.25;;;17.60;85.40;;;;;;5031536;28;20038;-73
2021/07/10 06:39:07;;;;;;;41.53;33.53;;;17.70;85.40;;;;;;5035109;28;20056;-71
2021/07/10 06:41:33;;;;;;;46.05;34.60;;;17.60;85.60;;;;;;5050074;28;20033;-72
2021/07/10 06:44:00;;;;;;;48.08;36.85;;;17.60;85.80;;;;;;5040325;28;20071;-72
2021/07/10 06:46:26;;;;;;;46.13;33.65;;;17.60;85.90;;;;;;5035877;28;20045;-73
2021/07/10 06:48:51;;;;;;;45.97;35.15;;;17.60;85.80;;;;;;5035946;28;20034;-75
2021/07/10 06:51:17;;;;;;;39.53;31.60;;;17.60;86.00;;;;;;5043216;28;20038;-72
2021/07/10 06:53:44;;;;;;;40.97;30.52;;;17.60;86.20;;;;;;5038704;28;20038;-73
2021/07/10 06:56:10;;;;;;;45.00;33.38;;;17.60;86.10;;;;;;5041337;28;20033;-72
2021/07/10 06:58:35;;;;;;;43.40;31.75;;;17.70;85.60;;;;;;5043409;28;20030;-73
2021/07/10 07:01:01;;;;;;;39.03;32.10;;;17.70;85.70;;;;;;5046380;28;20051;-74
2021/07/10 07:03:27;;;;;;;42.92;30.70;;;17.70;85.80;;;;;;5039355;28;20079;-75
2021/07/10 07:05:53;;;;;;;36.03;28.75;;;17.80;85.30;;;;;;5030725;28;20045;-73
2021/07/10 07:08:18;;;;;;;34.85;28.25;;;17.70;85.00;;;;;;5030562;28;20030;-72
2021/07/10 07:10:44;;;;;;;35.35;28.40;;;17.80;85.30;;;;;;5029460;28;20023;-73
2021/07/10 07:13:10;;;;;;;33.95;28.67;;;17.90;84.60;;;;;;5030097;28;20097;-72
2021/07/10 07:15:36;;;;;;;36.78;29.67;;;18.00;84.90;;;;;;5039876;28;20036;-73
2021/07/10 07:18:01;;;;;;;37.78;30.83;;;18.10;84.80;;;;;;5039742;28;20047;-73
2021/07/10 07:20:28;;;;;;;40.10;32.22;;;18.10;84.30;;;;;;5033320;28;20042;-74
2021/07/10 07:22:54;;;;;;;43.58;33.38;;;18.10;84.40;;;;;;5036565;28;20030;-72
2021/07/10 07:25:21;;;;;;;44.75;33.83;;;18.00;84.30;;;;;;5030130;28;20044;-73
2021/07/10 07:27:49;;;;;;;44.95;33.20;;;18.00;84.90;;;;;;5029317;28;20057;-73
2021/07/10 07:30:15;;;;;;;41.42;33.58;;;18.00;85.00;;;;;;5039198;28;20038;-72
2021/07/10 07:32:41;;;;;;;38.08;31.92;;;18.10;84.40;;;;;;5044861;28;20034;-71
2021/07/10 07:35:09;;;;;;;38.03;30.95;;;18.10;84.30;;;;;;5031504;28;20037;-73
2021/07/10 07:37:35;;;;;;;38.67;29.70;;;18.20;83.30;;;;;;5045468;28;20033;-73
2021/07/10 07:40:00;;;;;;;36.10;29.38;;;18.10;83.20;;;;;;5028964;28;20034;-73
2021/07/10 07:42:26;;;;;;;33.42;26.85;;;18.10;83.20;;;;;;5029875;28;20033;-75
2021/07/10 07:44:52;;;;;;;36.95;29.25;;;18.20;83.00;;;;;;5042544;28;20155;-72
2021/07/10 07:47:18;;;;;;;31.50;26.40;;;18.30;82.50;;;;;;5030739;28;20042;-73
2021/07/10 07:49:44;;;;;;;34.90;28.75;;;18.40;82.40;;;;;;5036000;28;20029;-74
2021/07/10 07:52:11;;;;;;;35.65;29.02;;;18.50;82.00;;;;;;5039771;28;20034;-73
2021/07/10 07:54:37;;;;;;;35.88;28.05;;;18.60;81.90;;;;;;5037792;28;20091;-72
2021/07/10 07:57:04;;;;;;;33.05;26.48;;;18.60;81.80;;;;;;5028057;28;20037;-73
2021/07/10 07:59:29;;;;;;;34.90;28.13;;;18.70;82.00;;;;;;5028707;28;20030;-73
2021/07/10 08:01:55;;;;;;;34.17;27.73;;;18.80;81.70;;;;;;5030464;28;20045;-75
2021/07/10 08:04:21;;;;;;;36.80;29.60;;;18.80;81.40;;;;;;5028170;28;20050;-74
2021/07/10 08:06:47;;;;;;;36.47;29.75;;;18.90;80.80;;;;;;5028458;28;20033;-71
2021/07/10 08:09:13;;;;;;;33.42;26.80;;;18.90;81.70;;;;;;5029920;28;20049;-73
2021/07/10 08:11:38;;;;;;;37.55;29.25;;;19.10;81.60;;;;;;5038904;28;20034;-73
2021/07/10 08:14:04;;;;;;;38.45;29.75;;;19.00;80.40;;;;;;5028882;28;20101;-74
2021/07/10 08:16:31;;;;;;;39.70;29.00;;;18.90;81.10;;;;;;5031031;28;20060;-75
2021/07/10 08:18:57;;;;;;;35.92;28.52;;;19.10;81.80;;;;;;5045038;28;20038;-71
2021/07/10 08:21:25;;;;;;;36.88;29.85;;;19.20;80.50;;;;;;5035417;28;20096;-72
2021/07/10 08:23:51;;;;;;;39.60;29.02;;;19.30;80.40;;;;;;5042677;28;20124;-74
2021/07/10 08:26:17;;;;;;;39.15;30.48;;;19.20;79.90;;;;;;5031486;28;20113;-73
2021/07/10 08:28:43;;;;;;;35.50;28.17;;;19.30;79.70;;;;;;5028081;28;20034;-74
2021/07/10 08:31:09;;;;;;;35.55;28.50;;;19.30;79.60;;;;;;5031330;28;20029;-74
2021/07/10 08:33:34;;;;;;;34.78;27.98;;;19.50;80.20;;;;;;5040172;28;20038;-76
2021/07/10 08:36:00;;;;;;;34.95;29.13;;;19.30;79.90;;;;;;5035290;28;20061;-75
2021/07/10 08:38:26;;;;;;;38.85;28.30;;;19.30;80.40;;;;;;5028969;28;20053;-73
2021/07/10 08:40:53;;;;;;;36.28;28.08;;;19.10;81.30;;;;;;5029344;28;20037;-73
2021/07/10 08:43:19;;;;;;;36.05;28.38;;;19.20;80.70;;;;;;5037311;28;20052;-73
2021/07/10 08:45:47;;;;;;;36.63;28.77;;;19.30;80.60;;;;;;5044474;28;20040;-74
2021/07/10 08:48:14;;;;;;;35.75;28.45;;;19.50;80.90;;;;;;5028880;28;20030;-73
2021/07/10 08:50:40;;;;;;;34.78;27.23;;;19.90;79.60;;;;;;5040421;28;20048;-73
2021/07/10 08:53:06;;;;;;;35.13;26.75;;;20.10;78.90;;;;;;5035098;28;20093;-75
2021/07/10 08:55:32;;;;;;;33.38;26.90;;;20.10;77.30;;;;;;5032933;28;20454;-74
2021/07/10 08:57:58;;;;;;;33.08;27.50;;;20.00;77.30;;;;;;5044925;28;20034;-73
2021/07/10 09:00:27;;;;;;;36.15;28.92;;;19.70;78.80;;;;;;5037301;28;20059;-74
2021/07/10 09:02:55;;;;;;;30.10;24.92;;;19.90;80.00;;;;;;5030074;28;20102;-72
2021/07/10 09:05:21;;;;;;;30.88;25.48;;;20.20;77.90;;;;;;5041938;28;20029;-73
2021/07/10 09:08:19;;;;;;;32.45;25.58;;;20.30;76.40;;;;;;5044389;28;20090;-74
2021/07/10 09:10:54;;;;;;;31.60;24.98;;;20.60;76.90;;;;;;5030806;28;20045;-73
2021/07/10 09:13:21;;;;;;;32.88;25.45;;;21.10;76.00;;;;;;5026833;28;20536;-73
2021/07/10 09:15:48;;;;;;;29.67;24.13;;;21.10;75.90;;;;;;5028966;28;20042;-72
2021/07/10 09:18:15;;;;;;;29.08;25.17;;;21.30;73.00;;;;;;5034521;28;20045;-73
2021/07/10 09:20:43;;;;;;;28.20;23.42;;;21.30;73.70;;;;;;5033079;28;20042;-73
2021/07/10 09:23:38;;;;;;;28.27;23.75;;;21.30;72.50;;;;;;5031832;28;20033;-74
2021/07/10 09:26:17;;;;;;;28.40;23.98;;;21.10;73.00;;;;;;5033885;28;20224;-77
2021/07/10 09:28:43;;;;;;;25.45;21.63;;;21.20;73.60;;;;;;5028708;28;20041;-73
2021/07/10 09:31:27;;;;;;;27.75;22.92;;;21.10;73.60;;;;;;5035366;28;20049;-73
2021/07/10 09:34:21;;;;;;;29.95;24.63;;;21.30;73.90;;;;;;5039134;28;20441;-76
2021/07/10 09:36:56;;;;;;;26.77;21.77;;;21.20;73.10;;;;;;5030129;28;20038;-73
2021/07/10 09:39:28;;;;;;;27.15;22.02;;;21.10;73.10;;;;;;5049452;28;20045;-73
2021/07/10 09:41:54;;;;;;;26.05;21.30;;;21.20;73.80;;;;;;5048072;28;20079;-73
2021/07/10 09:44:20;;;;;;;29.45;24.70;;;21.30;73.80;;;;;;5039793;28;20052;-73
2021/07/10 09:46:46;;;;;;;29.25;24.90;;;21.40;73.80;;;;;;5031571;28;20085;-73
2021/07/10 09:49:29;;;;;;;26.85;22.98;;;21.40;76.20;;;;;;5038713;28;20033;-74
2021/07/10 09:52:04;;;;;;;27.52;23.92;;;21.60;76.30;;;;;;5032648;28;20038;-74
2021/07/10 09:54:44;;;;;;;29.08;23.25;;;21.70;74.20;;;;;;5039325;28;20072;-73
2021/07/10 09:57:15;;;;;;;30.83;25.08;;;21.90;73.70;;;;;;5041815;28;20437;-76
2021/07/10 09:59:44;;;;;;;32.15;24.73;;;22.10;72.30;;;;;;5047158;28;20037;-76
2021/07/10 10:02:13;;;;;;;29.30;22.95;;;22.10;72.80;;;;;;5045484;28;20128;-73
2021/07/10 10:04:38;;;;;;;27.33;22.42;;;22.50;71.80;;;;;;5031953;28;20038;-73
2021/07/10 10:07:13;;;;;;;26.67;22.55;;;22.60;70.20;;;;;;5031489;28;20034;-76
2021/07/10 10:09:39;;;;;;;24.83;21.88;;;22.80;70.10;;;;;;5031551;28;20052;-72
2021/07/10 10:12:11;;;;;;;24.05;21.30;;;23.00;70.20;;;;;;5038570;28;20037;-77
2021/07/10 10:14:45;;;;;;;25.80;21.70;;;23.10;70.10;;;;;;5031656;28;20133;-76
2021/07/10 10:17:11;;;;;;;26.60;20.73;;;23.10;68.10;;;;;;5031575;28;20042;-72
2021/07/10 10:19:37;;;;;;;25.10;21.00;;;23.00;69.50;;;;;;5045214;28;20045;-72
2021/07/10 10:22:06;;;;;;;22.23;19.70;;;23.30;68.80;;;;;;5031400;28;20046;-72
2021/07/10 10:24:33;;;;;;;23.20;20.67;;;23.70;67.20;;;;;;5039158;28;20038;-74
2021/07/10 10:26:59;;;;;;;22.38;19.85;;;24.10;65.50;;;;;;5037033;28;20030;-71
2021/07/10 10:29:28;;;;;;;23.42;19.75;;;24.10;65.80;;;;;;5049058;28;20030;-71
2021/07/10 10:31:54;;;;;;;22.95;20.17;;;24.40;65.00;;;;;;5037112;28;20030;-75
2021/07/10 10:34:21;;;;;;;18.92;16.65;;;24.30;64.00;;;;;;5036991;28;20054;-75
2021/07/10 10:36:49;;;;;;;23.00;18.60;;;24.50;64.10;;;;;;5049860;28;20042;-73
2021/07/10 10:39:17;;;;;;;18.73;15.52;;;24.60;63.70;;;;;;5046931;28;20068;-74
2021/07/10 10:41:53;;;;;;;21.02;16.83;;;24.80;62.50;;;;;;5039364;28;20045;-73
2021/07/10 10:44:19;;;;;;;18.33;13.80;;;24.90;61.70;;;;;;5037606;28;20052;-72
2021/07/10 10:46:55;;;;;;;19.15;16.38;;;25.10;61.00;;;;;;5045721;28;20030;-71
2021/07/10 10:49:46;;;;;;;17.30;13.88;;;24.80;61.40;;;;;;5038468;28;20039;-72
2021/07/10 10:52:29;;;;;;;17.88;13.55;;;24.60;60.40;;;;;;5039008;28;20049;-75
2021/07/10 10:55:01;;;;;;;16.88;13.40;;;24.60;60.90;;;;;;5041943;28;20097;-71
2021/07/10 10:57:30;;;;;;;14.55;12.05;;;24.60;59.10;;;;;;5038230;28;20041;-72
2021/07/10 10:59:57;;;;;;;16.20;13.30;;;24.50;59.60;;;;;;5049223;28;20033;-72
2021/07/10 11:02:30;;;;;;;16.13;12.05;;;24.40;59.70;;;;;;5034244;28;20030;-72
2021/07/10 11:04:56;;;;;;;18.93;14.10;;;24.40;61.30;;;;;;5029804;28;20101;-75
2021/07/10 11:07:37;;;;;;;19.55;13.77;;;24.20;62.00;;;;;;5028996;28;20053;-72
2021/07/10 11:10:02;;;;;;;23.08;15.77;;;23.70;64.60;;;;;;5033604;28;20034;-73
2021/07/10 11:12:46;;;;;;;21.45;17.42;;;23.30;67.00;;;;;;5033909;28;20052;-74
2021/07/10 11:15:27;;;;;;;21.92;16.63;;;22.50;69.50;;;;;;5029572;28;20529;-73
2021/07/10 11:17:58;;;;;;;20.48;15.98;;;21.80;74.20;;;;;;5043261;28;20029;-74
2021/07/10 11:20:43;;;;;;;19.85;15.73;;;21.50;74.50;;;;;;5036870;28;20050;-73
2021/07/10 11:23:10;;;;;;;28.98;19.90;;;21.30;75.00;;;;;;5035981;28;20294;-73
2021/07/10 11:26:11;;;;;;;15.68;10.75;;;21.00;77.90;;;;;;5045807;28;20034;-74
2021/07/10 11:29:16;;;;;;;10.05;5.85;;;19.80;75.60;;;;;;5029133;28;20034;-75
2021/07/10 11:31:41;;;;;;;12.63;5.82;;;19.10;72.10;;;;;;5032886;28;20030;-73
2021/07/10 11:34:20;;;;;;;10.95;6.38;;;18.80;75.50;;;;;;5029674;28;20072;-73
2021/07/10 11:36:52;;;;;;;10.40;5.90;;;18.60;76.30;;;;;;5030477;28;20030;-73
2021/07/10 11:39:24;;;;;;;8.38;5.20;;;18.60;76.10;;;;;;5038627;28;20060;-73
2021/07/10 11:41:51;;;;;;;13.57;7.05;;;18.50;77.50;;;;;;5034715;28;20045;-73
2021/07/10 11:44:20;;;;;;;9.77;5.65;;;18.40;80.70;;;;;;5037009;28;20046;-73
2021/07/10 11:47:01;;;;;;;8.60;5.40;;;18.20;80.10;;;;;;5036879;28;20036;-72
2021/07/10 11:49:36;;;;;;;9.88;5.72;;;18.10;79.00;;;;;;5040485;28;20045;-73
2021/07/10 11:52:22;;;;;;;16.20;7.05;;;18.10;80.60;;;;;;5028304;28;20058;-75
2021/07/10 11:54:59;;;;;;;10.43;6.35;;;18.30;82.40;;;;;;5045250;28;20041;-72
2021/07/10 11:57:28;;;;;;;10.75;6.82;;;18.50;82.30;;;;;;5028441;28;20038;-73
2021/07/10 11:59:54;;;;;;;11.68;7.43;;;18.40;82.20;;;;;;5037438;28;20042;-75
2021/07/10 12:02:32;;;;;;;11.25;7.65;;;18.40;83.10;;;;;;5042376;28;20046;-72
2021/07/10 12:05:16;;;;;;;13.80;8.00;;;18.60;82.90;;;;;;5031797;28;20038;-73
2021/07/10 12:07:54;;;;;;;11.88;8.00;;;18.60;82.70;;;;;;5041259;28;20044;-73
2021/07/10 12:10:22;;;;;;;11.00;7.57;;;18.40;82.10;;;;;;5035242;28;20053;-73
2021/07/10 12:13:01;;;;;;;11.38;9.57;;;18.30;82.80;;;;;;5034416;28;20052;-74
2021/07/10 12:15:27;;;;;;;14.55;11.35;;;18.20;82.60;;;;;;5032165;28;20037;-73
2021/07/10 12:17:56;;;;;;;11.10;8.27;;;18.10;83.20;;;;;;5035049;28;20029;-73
2021/07/10 12:20:27;;;;;;;10.60;7.38;;;18.10;83.80;;;;;;5032222;28;20125;-72
2021/07/10 12:23:00;;;;;;;10.77;7.55;;;18.30;83.90;;;;;;5036851;28;20095;-75
2021/07/10 12:25:41;;;;;;;12.65;7.55;;;18.50;83.90;;;;;;5033343;28;20033;-73
2021/07/10 12:28:07;;;;;;;11.23;8.15;;;18.60;83.20;;;;;;5028745;28;20133;-73
2021/07/10 12:30:46;;;;;;;11.50;8.20;;;18.70;82.70;;;;;;5031764;28;20177;-73
2021/07/10 12:33:34;;;;;;;11.13;8.30;;;18.80;83.40;;;;;;5038071;28;20036;-73